TimeEST,TemperatureF,Dew PointF,Humidity,Sea Level PressureIn,VisibilityMPH,Wind Direction,Wind SpeedMPH,Gust SpeedMPH,PrecipitationIn,Events,Conditions,WindDirDegrees,DateUTC
12:51 AM,37.9,27.0,65,30.06,10.0,WNW,3.5,-,N/A,,Clear,290,2013-01-07 05:51:00
1:51 AM,37.4,26.6,65,30.08,10.0,WNW,3.5,-,N/A,,Clear,290,2013-01-07 06:51:00
2:51 AM,36.0,27.0,70,30.09,10.0,WNW,5.8,-,N/A,,Clear,290,2013-01-07 07:51:00
3:51 AM,36.0,28.0,73,30.10,10.0,West,8.1,-,N/A,,Clear,280,2013-01-07 08:51:00
4:51 AM,36.0,28.0,73,30.13,10.0,WNW,6.9,-,N/A,,Mostly Cloudy,290,2013-01-07 09:51:00
5:51 AM,35.1,27.0,72,30.16,10.0,Calm,Calm,-,N/A,,Clear,0,2013-01-07 10:51:00
6:51 AM,35.1,27.0,72,30.19,10.0,WNW,5.8,-,N/A,,Clear,300,2013-01-07 11:51:00
7:51 AM,37.0,28.9,73,30.23,10.0,WNW,6.9,-,N/A,,Overcast,300,2013-01-07 12:51:00
8:51 AM,41.0,28.9,62,30.26,10.0,WNW,9.2,-,N/A,,Partly Cloudy,300,2013-01-07 13:51:00
9:51 AM,42.1,26.1,53,30.29,10.0,NNW,17.3,20.7,N/A,,Clear,330,2013-01-07 14:51:00
10:51 AM,43.0,24.1,47,30.30,10.0,WNW,15.0,-,N/A,,Clear,300,2013-01-07 15:51:00
11:51 AM,44.6,23.0,43,30.31,10.0,NNW,11.5,-,N/A,,Clear,340,2013-01-07 16:51:00
12:51 PM,45.0,24.1,44,30.32,10.0,NNW,8.1,16.1,N/A,,Clear,330,2013-01-07 17:51:00
1:51 PM,45.0,21.0,39,30.32,10.0,NW,4.6,-,N/A,,Clear,320,2013-01-07 18:51:00
2:51 PM,46.0,19.0,34,30.34,10.0,NW,6.9,-,N/A,,Clear,310,2013-01-07 19:51:00
3:51 PM,44.1,19.0,37,30.37,10.0,NNW,4.6,-,N/A,,Clear,340,2013-01-07 20:51:00
4:51 PM,41.0,19.0,41,30.38,10.0,NW,3.5,-,N/A,,Clear,310,2013-01-07 21:51:00
5:51 PM,39.0,19.9,46,30.39,10.0,Calm,Calm,-,N/A,,Clear,0,2013-01-07 22:51:00
6:51 PM,36.0,19.0,50,30.39,10.0,Calm,Calm,-,N/A,,Clear,0,2013-01-07 23:51:00
7:51 PM,33.1,19.0,56,30.39,10.0,Calm,Calm,-,N/A,,Clear,0,2013-01-08 00:51:00
8:51 PM,32.0,19.9,61,30.38,10.0,Calm,Calm,-,N/A,,Clear,0,2013-01-08 01:51:00
9:51 PM,30.9,21.0,67,30.38,10.0,Calm,Calm,-,N/A,,Clear,0,2013-01-08 02:51:00
10:51 PM,28.9,19.9,69,30.39,10.0,WNW,5.8,-,N/A,,Clear,290,2013-01-08 03:51:00
11:51 PM,30.9,21.0,67,30.38,10.0,Calm,Calm,-,N/A,,Clear,0,2013-01-08 04:51:00